»·PEaware :: WAT542 KOAK-KSAN

WAT542 :: KOAK-KSAN

FLIGHT INFORMATION

Flight Status: Arrived
Operator:
Walker Air Transport
More flights by this operator :: More flights under this callsign
Pilot: Andrew C. (28419)
Aircraft: BOEING 737-800
(B738)
More flights by this aircraft type
Origin: KOAK Metro Oakland Intl
United States
Destination: KSAN San Diego Intl-Lindbergh
United States
More flights between these airports :: More routes between these airports
Route: CNDEL5 YYUNG LAX COMIX2
File this flight plan on PilotEdge
Remarks: RMK / SIMBRIEF
Altitude:
(Current/Filed)
35,000ft
Speed:
(Current/Filed)
473kts
Departed: 02-Sep-21 08:57 PM
Arrived: 02-Sep-21 10:08 PM
Distance/Time
Traveled:
387nm/1:11
Distance/Time
To Go:
Arrived

Flight Plot

Page will automatically refresh every two minutes.

Flight plan parsing failed; only flown route is shown


Map Options




Map Legend


Flown Route
Filed Route
Departure Airport
Arrival Airport
Navaid (VOR, NDB)
Fix

Horizontal Profiles

Position Reports

Time Latitude Longitude Heading Altitude Ground
Speed
02-Sep-21 20:26 37.710447 -122.211917 82 19ft 0kts
02-Sep-21 20:27 37.710447 -122.211917 82 19ft 0kts
02-Sep-21 20:28 37.710447 -122.211917 82 19ft 0kts
02-Sep-21 20:29 37.710447 -122.211917 82 19ft 0kts
02-Sep-21 20:30 37.710447 -122.211917 82 19ft 0kts
02-Sep-21 20:31 37.710447 -122.211917 82 19ft 0kts
02-Sep-21 20:31 37.710447 -122.211917 82 19ft 0kts
02-Sep-21 20:33 37.710447 -122.211917 82 19ft 0kts
02-Sep-21 20:34 37.710447 -122.211917 82 19ft 0kts
02-Sep-21 20:35 37.710447 -122.211917 82 19ft 0kts
02-Sep-21 20:36 37.710447 -122.211917 82 19ft 0kts
02-Sep-21 20:37 37.710447 -122.211917 82 19ft 0kts
02-Sep-21 20:38 37.710447 -122.211917 82 19ft 0kts
02-Sep-21 20:38 37.710447 -122.211917 82 19ft 0kts
02-Sep-21 20:39 37.710447 -122.211917 82 19ft 0kts
02-Sep-21 20:41 37.710447 -122.211917 82 19ft 0kts
02-Sep-21 20:41 37.710447 -122.211917 82 19ft 0kts
02-Sep-21 20:42 37.710378 -122.212555 82 18ft 2kts
02-Sep-21 20:43 37.710304 -122.213307 109 17ft 2kts
02-Sep-21 20:45 37.710181 -122.213585 217 17ft 0kts
02-Sep-21 20:46 37.710181 -122.213586 217 17ft 0kts
02-Sep-21 20:46 37.710181 -122.213586 217 17ft 0kts
02-Sep-21 20:47 37.710181 -122.213586 217 17ft 0kts
02-Sep-21 20:48 37.710181 -122.213586 217 17ft 0kts
02-Sep-21 20:49 37.710168 -122.213597 217 17ft 0kts
02-Sep-21 20:50 37.708631 -122.215721 237 17ft 15kts
02-Sep-21 20:51 37.705645 -122.216765 127 16ft 13kts
02-Sep-21 20:52 37.703447 -122.213846 156 16ft 0kts
02-Sep-21 20:53 37.702760 -122.213521 165 17ft 0kts
02-Sep-21 20:54 37.702760 -122.213521 165 17ft 0kts
02-Sep-21 20:55 37.702750 -122.213517 165 17ft 0kts
02-Sep-21 20:56 37.703157 -122.216790 310 16ft 64kts
02-Sep-21 20:57 37.731186 -122.258995 308 2220ft 207kts
02-Sep-21 20:58 37.776465 -122.326679 309 4060ft 282kts
02-Sep-21 20:59 37.778286 -122.407149 209 8391ft 279kts
02-Sep-21 21:00 37.697813 -122.429288 190 10907ft 336kts
02-Sep-21 21:01 37.599800 -122.450549 190 13768ft 366kts
02-Sep-21 21:02 37.497248 -122.472976 191 16731ft 380kts
02-Sep-21 21:03 37.387430 -122.493813 189 19401ft 395kts
02-Sep-21 21:04 37.269973 -122.515563 190 21824ft 409kts
02-Sep-21 21:05 37.148789 -122.538010 190 23973ft 423kts
02-Sep-21 21:06 37.024948 -122.554288 175 25931ft 437kts
02-Sep-21 21:07 36.908732 -122.491885 152 27635ft 454kts
02-Sep-21 21:08 36.798795 -122.411428 152 29417ft 456kts
02-Sep-21 21:09 36.689690 -122.331566 153 31419ft 450kts
02-Sep-21 21:10 36.582360 -122.253187 154 33256ft 443kts
02-Sep-21 21:11 36.475840 -122.175637 155 34952ft 437kts
02-Sep-21 21:12 36.368715 -122.097977 155 35029ft 451kts
02-Sep-21 21:13 36.260876 -122.019910 155 35032ft 446kts
02-Sep-21 21:14 36.153232 -121.942294 156 35035ft 447kts
02-Sep-21 21:15 36.045739 -121.865001 155 35036ft 447kts
02-Sep-21 21:16 35.952972 -121.757695 134 35029ft 466kts
02-Sep-21 21:17 35.872984 -121.630670 133 35009ft 466kts
02-Sep-21 21:18 35.792938 -121.503551 133 34999ft 465kts
02-Sep-21 21:19 35.713250 -121.377396 133 34999ft 466kts
02-Sep-21 21:20 35.633507 -121.251549 134 34999ft 463kts
02-Sep-21 21:21 35.554052 -121.126644 134 34995ft 464kts
02-Sep-21 21:22 35.475942 -120.999821 132 34992ft 466kts
02-Sep-21 21:23 35.401037 -120.870238 132 35006ft 467kts
02-Sep-21 21:24 35.322111 -120.734338 132 35018ft 466kts
02-Sep-21 21:25 35.240505 -120.594444 132 35018ft 465kts
02-Sep-21 21:26 35.157665 -120.453034 132 35018ft 466kts
02-Sep-21 21:27 35.076671 -120.315305 133 35018ft 465kts
02-Sep-21 21:28 34.994675 -120.176413 133 35011ft 465kts
02-Sep-21 21:29 34.918178 -120.047342 133 34991ft 465kts
02-Sep-21 21:30 34.842615 -119.920307 133 34984ft 464kts
02-Sep-21 21:31 34.766760 -119.793256 133 34993ft 464kts
02-Sep-21 21:32 34.690728 -119.666359 133 34999ft 464kts
02-Sep-21 21:33 34.614675 -119.539882 133 34999ft 464kts
02-Sep-21 21:34 34.538272 -119.413275 133 34999ft 464kts
02-Sep-21 21:35 34.462049 -119.287386 134 34999ft 463kts
02-Sep-21 21:36 34.385626 -119.161627 133 35009ft 463kts
02-Sep-21 21:37 34.309125 -119.036182 133 35009ft 463kts
02-Sep-21 21:38 34.232722 -118.911349 133 35026ft 463kts
02-Sep-21 21:39 34.155673 -118.785906 133 35024ft 464kts
02-Sep-21 21:40 34.078505 -118.660691 133 35002ft 464kts
02-Sep-21 21:41 34.000995 -118.535358 133 35000ft 464kts
02-Sep-21 21:42 33.920572 -118.414233 139 35002ft 458kts
02-Sep-21 21:43 33.833564 -118.302471 140 34999ft 457kts
02-Sep-21 21:44 33.747195 -118.190685 139 33571ft 455kts
02-Sep-21 21:45 33.660737 -118.077181 138 30544ft 461kts
02-Sep-21 21:46 33.573898 -117.963346 137 27876ft 458kts
02-Sep-21 21:47 33.485983 -117.858000 139 25229ft 442kts
02-Sep-21 21:48 33.398143 -117.759243 140 22604ft 426kts
02-Sep-21 21:49 33.311982 -117.667861 140 20018ft 402kts
02-Sep-21 21:50 33.228880 -117.579714 139 17448ft 389kts
02-Sep-21 21:51 33.147319 -117.494103 139 14881ft 370kts
02-Sep-21 21:52 33.091667 -117.402240 111 12731ft 333kts
02-Sep-21 21:53 33.061134 -117.306272 111 10623ft 298kts
02-Sep-21 21:54 33.013984 -117.231666 162 8991ft 287kts
02-Sep-21 21:55 32.948289 -117.269771 223 8992ft 256kts
02-Sep-21 21:56 32.883216 -117.272831 145 8919ft 266kts
02-Sep-21 21:57 32.822490 -117.219729 136 8269ft 265kts
02-Sep-21 21:58 32.795604 -117.139355 104 6960ft 261kts
02-Sep-21 21:59 32.778022 -117.060514 105 6001ft 232kts
02-Sep-21 22:00 32.760118 -116.987273 106 5233ft 213kts
02-Sep-21 22:01 32.715019 -116.955477 197 4062ft 203kts
02-Sep-21 22:02 32.688728 -117.007984 281 3191ft 197kts
02-Sep-21 22:03 32.704119 -117.068323 286 2201ft 171kts
02-Sep-21 22:04 32.714890 -117.113374 286 1239ft 131kts
02-Sep-21 22:05 32.725174 -117.155127 286 557ft 133kts
02-Sep-21 22:06 32.734632 -117.194111 286 26ft 59kts
02-Sep-21 22:07 32.735034 -117.198235 219 26ft 1kts
02-Sep-21 22:08 32.735107 -117.200401 286 26ft 12kts
02-Sep-21 22:09 32.735293 -117.204777 228 26ft 13kts
02-Sep-21 22:10 32.733845 -117.204656 85 26ft 0kts
02-Sep-21 22:11 32.733845 -117.204656 85 26ft 0kts
02-Sep-21 22:12 32.733845 -117.204656 85 26ft 0kts
02-Sep-21 22:13 32.733845 -117.204656 85 26ft 0kts
02-Sep-21 22:14 32.733845 -117.204656 85 26ft 0kts
02-Sep-21 22:15 32.733845 -117.204656 85 26ft 0kts
02-Sep-21 22:16 32.733845 -117.204656 85 26ft 0kts
02-Sep-21 22:17 32.733845 -117.204656 85 26ft 0kts
02-Sep-21 22:18 32.733845 -117.204656 85 26ft 0kts
02-Sep-21 22:19 32.733845 -117.204656 85 26ft 0kts

Navigation Log

Ident Type
Flight plan parsing failed, navigation log unavailable